Time;durP1;ratioP1;P1;durP2;ratioP2;P2;SDS_P1;SDS_P2;PMS_P1;PMS_P2;Temp;Humidity;BMP_temperature;BMP_pressure;BME280_temperature;BME280_humidity;BME280_pressure;Samples;Min_cycle;Max_cycle;Signal;HPM_P1;HPM_P2
2022/02/07 00:01:16;;;;;;;5.82;1.30;;;2.00;99.90;;;;;;5079781;28;20546;-50
2022/02/07 00:03:58;;;;;;;6.85;1.63;;;2.00;99.90;;;;;;5081297;28;20025;-56
2022/02/07 00:06:24;;;;;;;5.85;0.90;;;2.00;99.90;;;;;;5080691;28;20605;-56
2022/02/07 00:08:51;;;;;;;8.55;1.20;;;2.00;99.90;;;;;;5080288;28;20492;-56
2022/02/07 00:11:16;;;;;;;4.43;1.50;;;1.90;99.90;;;;;;5080708;28;20016;-52
2022/02/07 00:13:42;;;;;;;5.25;1.38;;;1.90;99.90;;;;;;5080957;28;20023;-59
2022/02/07 00:16:08;;;;;;;4.32;1.00;;;1.80;99.90;;;;;;5079650;28;20024;-55
2022/02/07 00:18:36;;;;;;;5.28;1.10;;;1.80;99.90;;;;;;5078781;28;20031;-55
2022/02/07 00:21:02;;;;;;;7.53;0.85;;;1.70;99.90;;;;;;5080782;28;20029;-57
2022/02/07 00:23:27;;;;;;;5.32;0.95;;;1.60;99.90;;;;;;5078737;28;20525;-55
2022/02/07 00:25:54;;;;;;;5.63;1.33;;;1.60;99.90;;;;;;5081034;28;20028;-55
2022/02/07 00:28:20;;;;;;;7.28;1.10;;;1.60;99.90;;;;;;5063217;28;20502;-56
2022/02/07 00:30:46;;;;;;;5.38;0.95;;;1.50;99.90;;;;;;5081613;28;20017;-55
2022/02/07 00:33:11;;;;;;;3.58;1.13;;;1.50;99.90;;;;;;5079833;28;20040;-53
2022/02/07 00:35:37;;;;;;;7.57;1.30;;;1.50;99.90;;;;;;5078871;28;20036;-55
2022/02/07 00:38:08;;;;;;;2.88;0.93;;;1.50;99.90;;;;;;5079483;28;20029;-57
2022/02/07 00:40:59;;;;;;;6.10;0.88;;;1.40;99.90;;;;;;5081129;28;20052;-54
2022/02/07 00:43:30;;;;;;;5.60;1.27;;;1.50;99.90;;;;;;5079253;28;20031;-52
2022/02/07 00:46:06;;;;;;;6.95;1.15;;;1.50;99.90;;;;;;5079848;28;20036;-56
2022/02/07 00:48:31;;;;;;;;;;;1.60;99.90;;;;;;5062559;28;20119;-55
2022/02/07 00:50:57;;;;;;;5.30;1.13;;;1.60;99.90;;;;;;5080910;28;19999;-56
2022/02/07 00:53:24;;;;;;;8.10;1.38;;;1.70;99.90;;;;;;5083184;28;20020;-51
2022/02/07 00:55:50;;;;;;;7.70;1.58;;;1.80;99.90;;;;;;5083709;28;20035;-55
2022/02/07 00:58:16;;;;;;;4.10;1.15;;;1.80;99.90;;;;;;5083668;28;20094;-57
2022/02/07 01:00:41;;;;;;;4.18;1.23;;;1.90;99.90;;;;;;5084106;28;20031;-54
2022/02/07 01:03:07;;;;;;;5.10;1.25;;;1.90;99.90;;;;;;5083154;28;20020;-54
2022/02/07 01:05:33;;;;;;;5.72;1.17;;;1.90;99.90;;;;;;5083249;28;20043;-54
2022/02/07 01:08:00;;;;;;;6.40;0.98;;;1.90;99.90;;;;;;5083506;28;20077;-52
2022/02/07 01:10:34;;;;;;;6.85;1.77;;;1.80;99.90;;;;;;5083130;28;20094;-54
2022/02/07 01:13:15;;;;;;;5.75;0.88;;;1.80;99.90;;;;;;5083049;28;20024;-52
2022/02/07 01:16:11;;;;;;;3.45;1.13;;;1.70;99.90;;;;;;5081576;28;20020;-60
2022/02/07 01:48:54;;;;;;;3.92;0.98;;;1.50;99.90;;;;;;5081611;28;20025;-55
2022/02/07 01:56:40;;;;;;;4.65;0.98;;;1.40;99.90;;;;;;5082787;28;20471;-56
2022/02/07 01:59:06;;;;;;;3.40;0.85;;;1.40;99.90;;;;;;5079744;28;20032;-55
2022/02/07 02:01:33;;;;;;;4.97;1.38;;;1.40;99.90;;;;;;5078965;28;20092;-56
2022/02/07 02:03:59;;;;;;;2.85;0.95;;;1.40;99.90;;;;;;5079584;28;20094;-55
2022/02/07 02:06:26;;;;;;;6.40;1.05;;;1.40;99.90;;;;;;5082729;28;20072;-53
2022/02/07 02:08:54;;;;;;;6.18;1.25;;;1.40;99.90;;;;;;5103740;22;20056;-52
2022/02/07 02:11:20;;;;;;;5.53;1.17;;;1.40;99.90;;;;;;5031573;28;20049;-52
2022/02/07 02:37:45;;;;;;;3.13;0.88;;;1.50;99.90;;;;;;5010599;28;20034;-56
2022/02/07 02:45:39;;;;;;;4.85;1.42;;;1.50;99.90;;;;;;5011689;28;20065;-56
2022/02/07 02:48:15;;;;;;;4.50;1.05;;;1.50;99.90;;;;;;5011677;28;20128;-53
2022/02/07 02:50:43;;;;;;;4.43;1.40;;;1.40;99.90;;;;;;4994390;28;20030;-54
2022/02/07 02:53:11;;;;;;;9.80;1.40;;;1.50;99.90;;;;;;5010616;28;20022;-53
2022/02/07 02:55:40;;;;;;;5.03;1.10;;;1.50;99.90;;;;;;5010940;28;20026;-56
2022/02/07 02:58:06;;;;;;;4.45;1.23;;;1.50;99.90;;;;;;5010509;28;20058;-55
2022/02/07 03:00:33;;;;;;;9.25;1.42;;;1.50;99.90;;;;;;5010816;28;20490;-52
2022/02/07 03:02:59;;;;;;;4.40;1.17;;;1.50;99.90;;;;;;4990402;28;20125;-55
2022/02/07 03:05:25;;;;;;;2.97;0.90;;;1.60;99.90;;;;;;5010952;28;20507;-56
2022/02/07 03:07:51;;;;;;;6.78;1.40;;;1.60;99.90;;;;;;5010464;28;20535;-51
2022/02/07 03:10:46;;;;;;;8.50;1.35;;;1.60;99.90;;;;;;5010180;28;20037;-55
2022/02/07 03:18:22;;;;;;;5.57;1.35;;;1.60;99.90;;;;;;5010364;28;20083;-53
2022/02/07 03:20:48;;;;;;;8.38;1.35;;;1.60;99.90;;;;;;4992690;28;20025;-54
2022/02/07 03:23:14;;;;;;;8.88;1.33;;;1.60;99.90;;;;;;5009557;28;20017;-53
2022/02/07 03:25:40;;;;;;;11.25;1.70;;;1.60;99.90;;;;;;5010375;28;20034;-54
2022/02/07 03:28:06;;;;;;;7.13;1.65;;;1.70;99.90;;;;;;5011523;28;20470;-52
2022/02/07 03:30:33;;;;;;;7.03;1.77;;;1.70;99.90;;;;;;5010534;28;20112;-56
2022/02/07 03:32:59;;;;;;;5.78;1.70;;;1.70;99.90;;;;;;5010558;28;20021;-55
2022/02/07 03:35:24;;;;;;;8.82;1.48;;;1.70;99.90;;;;;;4992748;28;20387;-56
2022/02/07 03:37:50;;;;;;;6.60;1.85;;;1.80;99.90;;;;;;5011587;28;20049;-53
2022/02/07 03:40:16;;;;;;;6.65;1.10;;;1.70;99.90;;;;;;5011067;28;20058;-56
2022/02/07 03:42:41;;;;;;;9.77;1.30;;;1.80;99.90;;;;;;5010417;28;20026;-55
2022/02/07 03:45:08;;;;;;;10.80;1.63;;;1.80;99.90;;;;;;5011324;28;20113;-54
2022/02/07 03:47:34;;;;;;;7.07;1.10;;;1.80;99.90;;;;;;5009566;28;20034;-55
2022/02/07 03:49:59;;;;;;;7.75;1.67;;;1.80;99.90;;;;;;5009678;28;20045;-54
2022/02/07 03:52:26;;;;;;;5.82;2.08;;;1.70;99.90;;;;;;5009139;28;20052;-56
2022/02/07 03:54:53;;;;;;;1.67;0.93;;;1.70;99.90;;;;;;5009815;28;20022;-52
2022/02/07 03:57:18;;;;;;;8.25;2.55;;;1.70;99.90;;;;;;5009437;28;20026;-52
2022/02/07 03:59:44;;;;;;;10.02;2.03;;;1.70;99.90;;;;;;5009119;28;20042;-52
2022/02/07 04:02:11;;;;;;;7.65;1.88;;;1.70;99.90;;;;;;5009087;28;20057;-55
2022/02/07 04:04:38;;;;;;;7.15;1.33;;;1.70;99.90;;;;;;5009953;28;20033;-54
2022/02/07 04:07:06;;;;;;;11.40;2.30;;;1.70;99.90;;;;;;5010897;28;20118;-55
2022/02/07 04:09:37;;;;;;;5.78;1.55;;;1.70;99.90;;;;;;5007709;28;20034;-54
2022/02/07 04:12:12;;;;;;;7.18;1.38;;;1.70;99.90;;;;;;5009634;28;20064;-54
2022/02/07 04:14:38;;;;;;;8.10;1.80;;;1.70;99.90;;;;;;5009909;28;20037;-53
2022/02/07 04:17:07;;;;;;;6.75;1.40;;;1.70;99.90;;;;;;5011310;28;20068;-53
2022/02/07 04:19:34;;;;;;;6.40;1.30;;;1.70;99.90;;;;;;5009488;28;20049;-52
2022/02/07 04:22:04;;;;;;;7.57;1.35;;;1.70;99.90;;;;;;5010432;28;20378;-53
2022/02/07 04:24:29;;;;;;;8.07;1.10;;;1.70;99.90;;;;;;5010453;28;20060;-52
2022/02/07 04:26:55;;;;;;;5.53;1.13;;;1.70;99.90;;;;;;5008949;28;20734;-53
2022/02/07 04:29:21;;;;;;;9.15;1.90;;;1.80;99.90;;;;;;5008907;28;20769;-51
2022/02/07 04:31:47;;;;;;;4.65;1.20;;;1.80;99.90;;;;;;5010281;28;20022;-51
2022/02/07 04:34:12;;;;;;;4.72;0.80;;;1.70;99.90;;;;;;5009535;28;20033;-53
2022/02/07 04:36:41;;;;;;;4.38;0.75;;;1.80;99.90;;;;;;5009187;28;20053;-53
2022/02/07 04:39:07;;;;;;;3.35;0.75;;;1.70;99.90;;;;;;4991283;28;20033;-53
2022/02/07 04:41:32;;;;;;;2.58;0.60;;;1.70;99.90;;;;;;5010124;28;20371;-54
2022/02/07 04:44:02;;;;;;;9.32;1.48;;;1.70;99.90;;;;;;5010317;28;20029;-53
2022/02/07 04:47:41;;;;;;;6.05;0.95;;;1.60;99.90;;;;;;5009599;28;20034;-54
2022/02/07 04:52:06;;;;;;;7.32;1.08;;;1.60;99.90;;;;;;5009453;28;20024;-59
2022/02/07 04:57:42;;;;;;;7.63;1.00;;;1.60;99.90;;;;;;5009333;28;20025;-52
2022/02/07 05:15:51;;;;;;;0.85;0.60;;;1.70;99.90;;;;;;5009667;28;20033;-52
2022/02/07 05:18:18;;;;;;;8.27;0.95;;;1.70;99.90;;;;;;5006702;28;20025;-52
2022/02/07 05:20:43;;;;;;;2.35;1.15;;;1.70;99.90;;;;;;5007950;28;20083;-52
2022/02/07 05:23:09;;;;;;;8.48;1.67;;;1.70;99.90;;;;;;5008132;28;20101;-53
2022/02/07 05:25:35;;;;;;;10.18;1.73;;;1.80;99.90;;;;;;5008002;28;20532;-53
2022/02/07 05:28:00;;;;;;;3.15;0.93;;;1.80;99.90;;;;;;5008340;28;20026;-52
2022/02/07 05:30:26;;;;;;;9.35;1.50;;;1.80;99.90;;;;;;5006502;28;20441;-51
2022/02/07 05:32:51;;;;;;;8.48;1.35;;;1.90;99.90;;;;;;5008553;28;20110;-51
2022/02/07 05:35:18;;;;;;;4.97;1.27;;;1.90;99.90;;;;;;5008002;28;20038;-53
2022/02/07 05:37:44;;;;;;;6.43;1.73;;;2.00;99.90;;;;;;5011667;28;20018;-52
2022/02/07 05:40:17;;;;;;;10.77;2.72;;;2.10;99.90;;;;;;5013096;28;20024;-52
2022/02/07 05:42:42;;;;;;;15.27;1.73;;;2.10;99.90;;;;;;5012286;28;20033;-53
2022/02/07 05:45:08;;;;;;;7.13;1.98;;;2.20;99.90;;;;;;5013388;28;20021;-55
2022/02/07 05:47:35;;;;;;;8.25;1.73;;;2.30;99.90;;;;;;5012709;28;20044;-52
2022/02/07 05:50:02;;;;;;;8.82;1.80;;;2.30;99.90;;;;;;5013391;28;20125;-51
2022/02/07 05:52:28;;;;;;;10.40;1.40;;;2.40;99.90;;;;;;5012171;28;20105;-55
2022/02/07 05:54:53;;;;;;;9.20;1.70;;;2.40;99.90;;;;;;5013593;28;20113;-52
2022/02/07 05:57:19;;;;;;;13.30;2.08;;;2.40;99.90;;;;;;5013282;28;20508;-56
2022/02/07 05:59:45;;;;;;;4.18;0.85;;;2.40;99.90;;;;;;5011818;28;20044;-53
2022/02/07 06:02:10;;;;;;;2.35;1.42;;;2.50;99.90;;;;;;5013379;28;20082;-53
2022/02/07 06:04:36;;;;;;;11.80;2.10;;;2.50;99.90;;;;;;4994443;28;20036;-53
2022/02/07 06:07:01;;;;;;;8.93;1.63;;;2.50;99.90;;;;;;5013076;28;20508;-54
2022/02/07 06:09:27;;;;;;;6.57;1.45;;;2.60;99.90;;;;;;5012558;28;20038;-53
2022/02/07 06:11:53;;;;;;;11.32;2.05;;;2.60;99.90;;;;;;4995270;28;20053;-53
2022/02/07 06:14:19;;;;;;;8.57;1.67;;;2.70;99.90;;;;;;5012306;28;20022;-53
2022/02/07 06:16:44;;;;;;;7.30;2.15;;;2.70;99.90;;;;;;5010761;28;20109;-52
2022/02/07 06:19:10;;;;;;;9.48;1.77;;;2.70;99.90;;;;;;5011176;28;20382;-52
2022/02/07 06:21:36;;;;;;;11.73;2.40;;;2.70;99.90;;;;;;5011506;28;20030;-53
2022/02/07 06:24:02;;;;;;;17.27;2.35;;;2.80;99.90;;;;;;5011202;28;20040;-51
2022/02/07 06:26:31;;;;;;;5.70;1.67;;;2.80;99.90;;;;;;5011982;28;20037;-51
2022/02/07 06:28:58;;;;;;;11.85;2.63;;;2.80;99.90;;;;;;5010934;28;20611;-51
2022/02/07 06:31:24;;;;;;;9.48;2.05;;;2.80;99.90;;;;;;5011770;28;20034;-53
2022/02/07 06:33:51;;;;;;;11.70;2.60;;;2.80;99.90;;;;;;5011407;28;20026;-51
2022/02/07 06:36:17;;;;;;;9.80;2.08;;;2.80;99.90;;;;;;5011595;28;20156;-52
2022/02/07 06:38:43;;;;;;;10.00;2.17;;;2.80;99.90;;;;;;5011663;28;20497;-52
2022/02/07 06:41:08;;;;;;;12.48;2.50;;;2.80;99.90;;;;;;5012120;28;20030;-55
2022/02/07 06:43:34;;;;;;;16.98;3.53;;;2.80;99.90;;;;;;5011071;28;20030;-53
2022/02/07 06:45:59;;;;;;;16.90;2.40;;;2.90;99.90;;;;;;5012124;28;20133;-51
2022/02/07 06:48:26;;;;;;;10.60;2.42;;;2.90;99.90;;;;;;5009252;28;20120;-52
2022/02/07 06:50:52;;;;;;;6.47;2.03;;;3.00;99.90;;;;;;5011895;28;20030;-52
2022/02/07 06:53:18;;;;;;;6.30;1.77;;;3.00;99.90;;;;;;5011066;28;20068;-55
2022/02/07 06:55:44;;;;;;;10.05;2.50;;;2.90;99.90;;;;;;5011075;28;20026;-51
2022/02/07 06:58:10;;;;;;;5.70;1.52;;;2.90;99.90;;;;;;5011935;28;20049;-52
2022/02/07 07:00:35;;;;;;;12.07;2.63;;;2.90;99.90;;;;;;5011363;28;20455;-52
2022/02/07 07:03:01;;;;;;;13.27;2.63;;;2.80;99.90;;;;;;5012031;28;20121;-52
2022/02/07 07:05:27;;;;;;;8.25;1.58;;;2.80;99.90;;;;;;5011141;28;20034;-50
2022/02/07 07:07:52;;;;;;;14.35;1.88;;;2.80;99.90;;;;;;5011438;28;20030;-53
2022/02/07 07:10:19;;;;;;;13.43;2.20;;;2.80;99.90;;;;;;5010933;28;20073;-54
2022/02/07 07:12:49;;;;;;;16.08;2.58;;;2.80;99.90;;;;;;5011325;28;20478;-52
2022/02/07 07:15:26;;;;;;;8.52;2.63;;;2.90;99.90;;;;;;5012063;28;20050;-52
2022/02/07 07:17:52;;;;;;;12.88;2.60;;;2.80;99.90;;;;;;5011061;28;20033;-54
2022/02/07 07:20:17;;;;;;;16.20;3.60;;;2.80;99.90;;;;;;5012021;28;20033;-52
2022/02/07 07:22:43;;;;;;;8.57;2.13;;;2.80;99.90;;;;;;5011227;28;20045;-55
2022/02/07 07:25:14;;;;;;;13.55;3.65;;;2.80;99.90;;;;;;5011845;28;20617;-54
2022/02/07 07:27:55;;;;;;;11.57;2.92;;;2.80;99.90;;;;;;5011089;28;20437;-56
2022/02/07 07:30:25;;;;;;;7.75;2.42;;;2.80;99.90;;;;;;5010810;28;20026;-56
2022/02/07 07:32:51;;;;;;;12.20;2.63;;;2.90;99.90;;;;;;5010876;28;20533;-53
2022/02/07 07:35:16;;;;;;;13.15;3.35;;;3.00;99.90;;;;;;5010622;28;20046;-54
2022/02/07 07:37:42;;;;;;;15.60;3.60;;;3.00;99.90;;;;;;5010085;28;20137;-54
2022/02/07 07:40:08;;;;;;;17.95;2.33;;;3.00;99.90;;;;;;5009384;28;20040;-54
2022/02/07 07:42:34;;;;;;;14.18;3.28;;;3.00;99.90;;;;;;5009419;28;20046;-54
2022/02/07 07:44:59;;;;;;;13.10;2.92;;;3.00;99.90;;;;;;5010159;28;20084;-53
2022/02/07 07:47:29;;;;;;;12.73;3.15;;;3.00;99.90;;;;;;5010236;28;20037;-54
2022/02/07 07:50:21;;;;;;;12.57;3.38;;;3.00;99.90;;;;;;5010156;28;20057;-55
2022/02/07 07:53:04;;;;;;;16.30;3.83;;;3.00;99.90;;;;;;5009429;28;20448;-52
2022/02/07 08:03:40;;;;;;;17.88;3.75;;;3.20;99.90;;;;;;5010608;28;20087;-52
2022/02/07 08:06:19;;;;;;;19.65;4.43;;;3.20;99.90;;;;;;5010232;28;20038;-54
2022/02/07 08:11:14;;;;;;;10.95;2.85;;;3.20;99.90;;;;;;5010257;28;20161;-53
2022/02/07 08:13:41;;;;;;;14.60;2.70;;;3.20;99.90;;;;;;5052478;22;20051;-50
2022/02/07 08:16:07;;;;;;;13.85;3.75;;;3.30;99.90;;;;;;5088719;28;20020;-51
2022/02/07 08:18:33;;;;;;;16.38;3.42;;;3.40;99.90;;;;;;5087882;28;20020;-52
2022/02/07 08:20:59;;;;;;;11.60;3.10;;;3.40;99.90;;;;;;5070573;28;20020;-52
2022/02/07 08:23:25;;;;;;;11.13;3.90;;;3.50;99.90;;;;;;5088363;28;20415;-52
2022/02/07 08:25:52;;;;;;;17.13;3.55;;;3.50;99.90;;;;;;5088758;28;20048;-53
2022/02/07 08:28:18;;;;;;;15.65;3.63;;;3.50;99.90;;;;;;5070346;28;20023;-52
2022/02/07 08:30:44;;;;;;;17.52;3.67;;;3.50;99.90;;;;;;5088577;28;20028;-51
2022/02/07 08:33:09;;;;;;;18.77;3.78;;;3.60;99.90;;;;;;5070241;28;20047;-54
2022/02/07 08:35:35;;;;;;;10.13;2.83;;;3.60;99.90;;;;;;5087751;28;20039;-53
2022/02/07 08:38:01;;;;;;;16.92;3.08;;;3.70;99.90;;;;;;5089049;28;20590;-51
2022/02/07 08:40:28;;;;;;;13.18;3.95;;;3.80;99.90;;;;;;5088691;28;20031;-51
2022/02/07 08:42:54;;;;;;;16.55;4.10;;;3.80;99.90;;;;;;5088254;28;20024;-52
2022/02/07 08:45:21;;;;;;;12.48;2.90;;;3.90;99.90;;;;;;5088621;28;20028;-54
2022/02/07 08:47:47;;;;;;;13.18;3.33;;;3.90;99.90;;;;;;5087774;28;20052;-54
2022/02/07 08:50:13;;;;;;;15.52;4.07;;;3.90;99.90;;;;;;5087910;28;20103;-52
2022/02/07 08:52:43;;;;;;;13.27;3.33;;;4.00;99.90;;;;;;5088302;28;20077;-53
2022/02/07 08:55:14;;;;;;;15.25;3.15;;;4.10;99.90;;;;;;5088222;28;20075;-54
2022/02/07 08:57:44;;;;;;;17.25;4.05;;;4.10;99.90;;;;;;5088310;28;20028;-51
2022/02/07 09:00:21;;;;;;;18.38;3.85;;;4.20;99.90;;;;;;5088016;28;20396;-52
2022/02/07 09:05:33;;;;;;;12.48;2.88;;;4.30;99.90;;;;;;5088289;28;20028;-53
2022/02/07 09:10:34;;;;;;;21.92;4.43;;;4.50;99.90;;;;;;5087954;28;20067;-52
2022/02/07 09:13:00;;;;;;;20.05;4.35;;;4.60;99.90;;;;;;5091867;28;20059;-53
2022/02/07 09:15:39;;;;;;;13.63;3.17;;;4.70;99.90;;;;;;5092266;28;20031;-50
2022/02/07 09:18:07;;;;;;;15.00;3.65;;;4.80;99.90;;;;;;5092335;28;20523;-54
2022/02/07 09:20:43;;;;;;;12.23;3.38;;;4.80;99.90;;;;;;5074195;28;20040;-51
2022/02/07 09:23:08;;;;;;;14.73;3.87;;;4.80;99.90;;;;;;5091625;28;20023;-52
2022/02/07 09:25:34;;;;;;;17.70;3.67;;;4.70;99.90;;;;;;5074108;28;20273;-53
2022/02/07 09:28:00;;;;;;;24.38;4.22;;;4.80;99.90;;;;;;5092099;28;20039;-48
2022/02/07 09:30:27;;;;;;;16.13;3.65;;;4.80;99.90;;;;;;5091105;28;20097;-53
2022/02/07 09:32:53;;;;;;;20.27;4.65;;;4.80;99.90;;;;;;5091017;28;20085;-53
2022/02/07 09:35:19;;;;;;;15.93;3.95;;;4.90;99.90;;;;;;5091958;28;20032;-52
2022/02/07 09:37:45;;;;;;;19.45;4.20;;;4.90;99.90;;;;;;5092012;28;20032;-52
2022/02/07 09:40:12;;;;;;;18.25;4.10;;;5.00;99.90;;;;;;5091887;28;20063;-49
2022/02/07 09:42:43;;;;;;;18.45;4.45;;;5.00;99.90;;;;;;5091007;28;20495;-50
2022/02/07 09:45:29;;;;;;;12.93;3.80;;;5.10;99.90;;;;;;5091115;28;20024;-52
2022/02/07 09:47:56;;;;;;;17.13;4.28;;;5.10;99.90;;;;;;5091711;28;20496;-52
2022/02/07 09:50:22;;;;;;;20.45;4.28;;;5.00;99.90;;;;;;5091957;28;20032;-52
2022/02/07 09:52:47;;;;;;;14.85;3.70;;;5.00;99.90;;;;;;5091745;28;20024;-50
2022/02/07 09:55:13;;;;;;;16.42;3.40;;;5.00;99.90;;;;;;5091907;28;20028;-55
2022/02/07 09:57:39;;;;;;;16.55;3.58;;;4.90;99.90;;;;;;5091539;28;20024;-53
2022/02/07 10:00:08;;;;;;;17.13;4.22;;;4.90;99.90;;;;;;5091522;28;20604;-52
2022/02/07 10:02:46;;;;;;;19.63;3.97;;;5.00;99.90;;;;;;5091092;28;20031;-52
2022/02/07 10:05:22;;;;;;;17.58;4.38;;;5.10;99.90;;;;;;5091039;28;20038;-51
2022/02/07 10:08:11;;;;;;;13.83;2.93;;;5.20;99.90;;;;;;5091184;28;20039;-53
2022/02/07 10:10:45;;;;;;;18.67;3.97;;;5.20;99.90;;;;;;5072715;28;20042;-53
2022/02/07 10:15:50;;;;;;;16.48;4.03;;;5.40;99.90;;;;;;5091266;28;20078;-54
2022/02/07 10:21:24;;;;;;;15.50;3.50;;;5.50;99.90;;;;;;5091444;28;20089;-54
2022/02/07 10:40:22;;;;;;;17.90;3.95;;;5.50;99.90;;;;;;5090619;28;20073;-52
2022/02/07 10:45:35;;;;;;;11.75;2.97;;;5.70;99.90;;;;;;5090508;28;20190;-52
2022/02/07 10:48:05;;;;;;;10.98;2.35;;;5.70;99.90;;;;;;5090029;28;20457;-50
2022/02/07 10:50:31;;;;;;;11.57;2.97;;;5.80;99.90;;;;;;5089917;28;20056;-55
2022/02/07 10:52:59;;;;;;;18.42;3.85;;;5.80;99.90;;;;;;5090275;28;20492;-52
2022/02/07 10:55:27;;;;;;;12.50;3.00;;;5.80;99.90;;;;;;5087856;28;20035;-54
2022/02/07 10:57:54;;;;;;;16.05;4.25;;;5.90;99.90;;;;;;5088256;28;20055;-53
2022/02/07 11:00:29;;;;;;;18.30;4.75;;;6.10;99.90;;;;;;5090323;28;20032;-56
2022/02/07 11:05:36;;;;;;;24.17;5.05;;;6.10;99.90;;;;;;5088512;28;20120;-54
2022/02/07 11:08:19;;;;;;;15.73;3.97;;;6.10;99.90;;;;;;5090178;28;20035;-54
2022/02/07 11:16:38;;;;;;;13.45;3.03;;;6.00;99.90;;;;;;5089278;28;20509;-54
2022/02/07 11:21:39;;;;;;;17.35;3.72;;;6.20;99.90;;;;;;5089320;28;20100;-52
2022/02/07 11:27:49;;;;;;;17.75;3.55;;;6.20;99.90;;;;;;5089131;28;20043;-50
2022/02/07 11:30:16;;;;;;;15.02;3.05;;;6.20;99.90;;;;;;5088584;28;20560;-51
2022/02/07 11:32:43;;;;;;;11.88;3.17;;;6.30;99.90;;;;;;5088285;28;20055;-54
2022/02/07 11:35:11;;;;;;;12.55;2.40;;;6.30;99.90;;;;;;5087313;28;20095;-51
2022/02/07 11:37:37;;;;;;;9.77;2.70;;;6.50;99.90;;;;;;5088902;28;20027;-50
2022/02/07 11:40:32;;;;;;;12.60;3.53;;;6.50;99.90;;;;;;5089400;28;20080;-51
2022/02/07 11:43:47;;;;;;;12.07;3.28;;;6.40;99.90;;;;;;5089248;28;20027;-54
2022/02/07 11:46:13;;;;;;;15.38;3.35;;;6.40;99.90;;;;;;4986941;28;20112;-54
2022/02/07 11:48:46;;;;;;;10.95;3.25;;;6.50;99.90;;;;;;4987456;28;20106;-55
2022/02/07 11:51:30;;;;;;;8.55;3.13;;;6.60;99.90;;;;;;5040001;28;20811;-51
2022/02/07 11:54:06;;;;;;;11.85;3.03;;;6.60;99.90;;;;;;5088892;28;20499;-54
2022/02/07 11:56:49;;;;;;;13.98;2.75;;;6.60;99.90;;;;;;5089228;28;20023;-48
2022/02/07 12:01:59;;;;;;;14.07;3.33;;;6.40;99.90;;;;;;5089140;28;20028;-51
2022/02/07 12:04:38;;;;;;;8.48;2.50;;;6.40;99.90;;;;;;5070626;28;20464;-53
2022/02/07 12:07:22;;;;;;;14.10;2.83;;;6.40;99.90;;;;;;5088961;28;20023;-51
2022/02/07 12:10:03;;;;;;;12.98;3.28;;;6.40;99.90;;;;;;5088545;28;20020;-53
2022/02/07 12:12:33;;;;;;;17.17;3.53;;;6.30;99.90;;;;;;5088046;28;20012;-53
2022/02/07 12:15:04;;;;;;;12.77;3.50;;;6.30;99.90;;;;;;5068672;28;20031;-53
2022/02/07 12:17:56;;;;;;;18.10;3.17;;;6.30;99.90;;;;;;5087641;28;20020;-53
2022/02/07 12:20:25;;;;;;;16.33;3.50;;;6.40;99.90;;;;;;5087565;28;20032;-54
2022/02/07 12:22:54;;;;;;;12.45;2.80;;;6.40;99.90;;;;;;5087580;28;20098;-53
2022/02/07 12:25:23;;;;;;;19.85;3.13;;;6.50;99.90;;;;;;5088003;28;20115;-54
2022/02/07 12:27:50;;;;;;;12.70;3.05;;;6.50;99.90;;;;;;5088012;28;20615;-51
2022/02/07 12:30:27;;;;;;;11.88;2.63;;;6.60;99.90;;;;;;5087790;28;20090;-53
2022/02/07 12:32:53;;;;;;;10.82;2.80;;;6.60;99.90;;;;;;5087775;28;20364;-51
2022/02/07 12:35:24;;;;;;;13.02;3.13;;;6.50;99.90;;;;;;5085580;28;20119;-54
2022/02/07 12:37:49;;;;;;;16.15;3.08;;;6.40;99.90;;;;;;5084846;28;20085;-51
2022/02/07 12:40:15;;;;;;;7.57;2.63;;;6.40;99.90;;;;;;5088586;28;20024;-53
2022/02/07 12:42:42;;;;;;;9.90;2.92;;;6.40;99.90;;;;;;5069985;28;20016;-50
2022/02/07 12:45:08;;;;;;;17.88;2.88;;;6.50;99.90;;;;;;5088166;28;20107;-54
2022/02/07 12:47:37;;;;;;;17.65;3.88;;;6.50;99.90;;;;;;5089670;28;20479;-52
2022/02/07 12:50:12;;;;;;;21.50;4.32;;;6.50;99.90;;;;;;5092508;28;20490;-53
2022/02/07 12:52:38;;;;;;;13.02;3.55;;;6.50;99.90;;;;;;5092158;28;20020;-53
2022/02/07 12:55:06;;;;;;;17.70;3.45;;;6.50;99.90;;;;;;5074304;28;20035;-52
2022/02/07 12:57:39;;;;;;;15.30;3.42;;;6.40;99.90;;;;;;5090689;28;20035;-52
2022/02/07 13:00:07;;;;;;;23.00;4.68;;;6.40;99.90;;;;;;5073126;28;20031;-51
2022/02/07 13:02:33;;;;;;;13.18;3.33;;;6.20;99.90;;;;;;5092469;28;20016;-55
2022/02/07 13:04:59;;;;;;;18.15;3.25;;;6.10;99.90;;;;;;5091127;28;20104;-47
2022/02/07 13:07:26;;;;;;;9.55;2.50;;;6.10;99.90;;;;;;5075043;28;20016;-53
2022/02/07 13:09:54;;;;;;;11.35;2.40;;;6.10;99.90;;;;;;5091083;28;20032;-51
2022/02/07 13:14:57;;;;;;;6.90;2.28;;;5.90;99.90;;;;;;5090283;28;20503;-54
2022/02/07 13:17:25;;;;;;;10.50;1.77;;;5.80;99.90;;;;;;5092086;28;20020;-54
2022/02/07 13:19:53;;;;;;;3.42;1.70;;;5.80;99.90;;;;;;5073726;28;20024;-51
2022/02/07 13:22:21;;;;;;;7.35;1.60;;;5.80;99.90;;;;;;5091180;28;20062;-51
2022/02/07 13:24:49;;;;;;;7.07;2.83;;;5.70;99.90;;;;;;5090383;28;20020;-52
2022/02/07 13:27:18;;;;;;;10.43;2.25;;;5.70;99.90;;;;;;5091617;28;20035;-51
2022/02/07 13:29:48;;;;;;;3.55;1.83;;;5.60;99.90;;;;;;5090549;28;20055;-54
2022/02/07 13:32:19;;;;;;;13.98;3.33;;;5.60;99.90;;;;;;5091441;28;20615;-55
2022/02/07 13:34:46;;;;;;;8.05;2.30;;;5.60;99.90;;;;;;5089706;28;20020;-50
2022/02/07 13:37:15;;;;;;;5.90;2.80;;;5.50;99.90;;;;;;5091914;28;20038;-50
2022/02/07 13:39:57;;;;;;;8.52;2.17;;;5.60;99.90;;;;;;5089720;28;20392;-51
2022/02/07 13:42:31;;;;;;;14.77;2.92;;;5.60;99.90;;;;;;5091431;28;20016;-52
2022/02/07 13:45:18;;;;;;;11.07;2.97;;;5.50;99.90;;;;;;5089683;28;20020;-53
2022/02/07 13:47:44;;;;;;;;;;;5.50;99.90;;;;;;5092141;28;20016;-56
2022/02/07 13:50:11;;;;;;;;;;;5.40;99.90;;;;;;5090518;28;19916;-54
2022/02/07 13:52:39;;;;;;;15.25;2.97;;;5.40;99.90;;;;;;5091132;28;20264;-53
2022/02/07 13:55:18;;;;;;;12.10;2.45;;;5.50;99.90;;;;;;5089681;28;20578;-52
2022/02/07 13:58:01;;;;;;;15.05;3.88;;;5.50;99.90;;;;;;5090310;28;20017;-53
2022/02/07 14:00:32;;;;;;;20.75;4.32;;;5.50;99.90;;;;;;5089829;28;20024;-51
2022/02/07 14:03:13;;;;;;;15.60;3.47;;;5.60;99.90;;;;;;5072263;28;20391;-52
2022/02/07 14:05:44;;;;;;;17.67;4.55;;;5.70;99.90;;;;;;5090263;28;20051;-52
2022/02/07 14:08:12;;;;;;;14.30;2.95;;;5.70;99.90;;;;;;5073198;28;20099;-53
2022/02/07 14:10:39;;;;;;;13.20;2.78;;;5.70;99.90;;;;;;5090496;28;20154;-50
2022/02/07 14:13:06;;;;;;;17.42;3.92;;;5.70;99.90;;;;;;5089662;28;20032;-51
2022/02/07 14:15:33;;;;;;;14.85;2.88;;;5.70;99.90;;;;;;5099247;22;20512;-55
2022/02/07 14:18:02;;;;;;;14.35;4.03;;;5.70;99.90;;;;;;5069192;28;20052;-53
2022/02/07 14:20:31;;;;;;;22.00;3.63;;;5.60;99.90;;;;;;5069995;28;20511;-56
2022/02/07 14:22:56;;;;;;;20.45;4.22;;;5.60;99.90;;;;;;5069816;28;20013;-55
2022/02/07 14:25:29;;;;;;;15.50;3.30;;;5.60;99.90;;;;;;5070903;28;20033;-54
2022/02/07 14:27:59;;;;;;;13.07;3.65;;;5.70;99.90;;;;;;5070808;28;20056;-55
2022/02/07 14:30:26;;;;;;;21.30;4.75;;;5.70;99.90;;;;;;5070396;28;20028;-56
2022/02/07 14:32:53;;;;;;;19.40;3.72;;;5.70;99.90;;;;;;5069619;28;20195;-52
2022/02/07 14:35:20;;;;;;;12.38;3.10;;;5.70;99.90;;;;;;5069661;28;20078;-51
2022/02/07 14:37:46;;;;;;;22.85;4.68;;;5.70;99.90;;;;;;5068911;28;20438;-54
2022/02/07 14:40:12;;;;;;;15.45;3.53;;;5.70;99.90;;;;;;5069949;28;20502;-52
2022/02/07 14:42:38;;;;;;;12.65;3.00;;;5.80;99.90;;;;;;5069528;28;20036;-53
2022/02/07 14:45:16;;;;;;;9.20;2.70;;;5.70;99.90;;;;;;5069224;28;20385;-53
2022/02/07 14:50:15;;;;;;;8.65;2.33;;;5.70;99.90;;;;;;5068660;28;20082;-53
2022/02/07 14:52:41;;;;;;;10.70;3.45;;;5.60;99.90;;;;;;5069079;28;20496;-56
2022/02/07 14:55:07;;;;;;;14.75;3.00;;;5.60;99.90;;;;;;5068376;28;20496;-53
2022/02/07 14:57:33;;;;;;;14.63;3.05;;;5.50;99.90;;;;;;5069458;28;20028;-54
2022/02/07 15:00:00;;;;;;;11.85;2.33;;;5.50;99.90;;;;;;5069327;28;20055;-56
2022/02/07 15:02:25;;;;;;;11.10;2.63;;;5.40;99.90;;;;;;5069779;28;20044;-55
2022/02/07 15:04:54;;;;;;;15.35;2.30;;;5.40;99.90;;;;;;5069533;28;20051;-57
2022/02/07 15:07:21;;;;;;;11.88;2.35;;;5.40;99.90;;;;;;5069881;28;20024;-55
2022/02/07 15:09:48;;;;;;;14.80;3.03;;;5.20;99.90;;;;;;5068273;28;20032;-53
2022/02/07 15:12:14;;;;;;;14.23;2.70;;;5.20;99.90;;;;;;5069113;28;20095;-56
2022/02/07 15:14:40;;;;;;;11.85;3.08;;;5.10;99.90;;;;;;5069192;28;20111;-54
2022/02/07 15:17:05;;;;;;;12.90;2.17;;;5.10;99.90;;;;;;5069594;28;20027;-56
2022/02/07 15:19:31;;;;;;;9.52;2.30;;;5.00;99.90;;;;;;5068859;28;20033;-55
2022/02/07 15:21:57;;;;;;;10.13;2.28;;;4.90;99.90;;;;;;5069562;28;20025;-53
2022/02/07 15:24:25;;;;;;;8.75;1.85;;;4.80;99.90;;;;;;5069034;28;20107;-51
2022/02/07 15:26:50;;;;;;;6.03;1.95;;;4.80;99.90;;;;;;5068890;28;20032;-56
2022/02/07 15:29:17;;;;;;;14.93;3.00;;;4.70;99.90;;;;;;5068454;28;20029;-55
2022/02/07 15:31:48;;;;;;;13.75;2.90;;;4.60;99.90;;;;;;5069693;28;20081;-53
2022/02/07 15:34:16;;;;;;;10.63;3.33;;;4.50;99.90;;;;;;5066324;28;20106;-54
2022/02/07 15:36:42;;;;;;;10.70;2.45;;;4.50;99.90;;;;;;5069371;28;20012;-56